createdAt,value
2017-04-28T00:01:35.996Z,6.66
2017-04-28T00:04:04.349Z,6.44
2017-04-28T00:06:32.665Z,7.02
2017-04-28T00:09:01.009Z,6.32
2017-04-28T00:11:29.388Z,6.52
2017-04-28T00:13:57.710Z,6.06
2017-04-28T00:16:26.073Z,5.84
2017-04-28T00:18:54.403Z,6.18
2017-04-28T00:21:22.754Z,6.40
2017-04-28T00:23:51.853Z,6.02
2017-04-28T00:26:21.145Z,7.04
2017-04-28T00:28:49.465Z,5.98
2017-04-28T00:31:17.801Z,6.46
2017-04-28T00:33:46.513Z,5.86
2017-04-28T00:36:14.840Z,6.16
2017-04-28T00:38:43.177Z,6.20
2017-04-28T00:41:11.542Z,6.22
2017-04-28T00:43:40.021Z,6.12
2017-04-28T00:46:08.362Z,6.86
2017-04-28T00:48:36.688Z,5.54
2017-04-28T00:51:05.040Z,6.42
2017-04-28T00:53:34.206Z,6.28
2017-04-28T00:56:02.585Z,6.92
2017-04-28T00:58:30.945Z,6.24
2017-04-28T01:00:59.279Z,6.78
2017-04-28T01:03:27.726Z,6.20
2017-04-28T01:05:56.081Z,6.28
2017-04-28T01:08:24.434Z,5.96
2017-04-28T01:10:52.773Z,6.22
2017-04-28T01:13:21.938Z,6.52
2017-04-28T01:15:50.297Z,6.74
2017-04-28T01:18:18.612Z,6.58
2017-04-28T01:20:46.941Z,6.60
2017-04-28T01:23:15.340Z,6.48
2017-04-28T01:25:43.768Z,6.48
2017-04-28T01:28:12.114Z,7.04
2017-04-28T01:30:40.521Z,7.28
2017-04-28T01:33:08.869Z,7.32
2017-04-28T01:35:37.223Z,6.78
2017-04-28T01:38:05.549Z,6.98
2017-04-28T01:40:34.617Z,6.44
2017-04-28T01:43:02.973Z,8.42
2017-04-28T01:45:35.867Z,6.90
2017-04-28T01:48:04.536Z,8.00
2017-04-28T01:50:32.853Z,6.52
2017-04-28T01:53:01.911Z,6.84
2017-04-28T01:55:30.319Z,7.72
2017-04-28T01:57:59.431Z,7.40
2017-04-28T02:00:27.790Z,7.22
2017-04-28T02:02:56.955Z,7.02
2017-04-28T02:05:25.296Z,8.10
2017-04-28T02:07:53.645Z,8.66
2017-04-28T02:10:22.742Z,8.00
2017-04-28T02:12:51.898Z,7.02
2017-04-28T02:15:20.253Z,7.34
2017-04-28T02:17:48.567Z,7.58
2017-04-28T02:20:16.939Z,7.50
2017-04-28T02:22:45.357Z,8.26
2017-04-28T02:25:13.690Z,7.94
2017-04-28T02:27:42.035Z,7.90
2017-04-28T02:30:10.384Z,8.72
2017-04-28T02:32:40.009Z,7.68
2017-04-28T02:35:08.349Z,8.48
2017-04-28T02:37:37.441Z,8.84
2017-04-28T02:40:05.890Z,8.32
2017-04-28T02:42:34.240Z,9.46
2017-04-28T02:45:02.926Z,8.90
2017-04-28T02:47:31.265Z,9.56
2017-04-28T02:50:00.325Z,8.98
2017-04-28T02:52:28.669Z,9.74
2017-04-28T02:54:57.019Z,9.40
2017-04-28T02:57:26.094Z,8.58
2017-04-28T02:59:54.537Z,10.12
2017-04-28T03:02:22.909Z,10.58
2017-04-28T03:04:51.285Z,9.04
2017-04-28T03:07:19.648Z,8.54
2017-04-28T03:09:47.973Z,8.72
2017-04-28T03:12:16.339Z,8.26
2017-04-28T03:14:44.689Z,9.76
2017-04-28T03:17:13.103Z,9.34
2017-04-28T03:19:41.574Z,10.26
2017-04-28T03:22:09.922Z,9.62
2017-04-28T03:24:38.301Z,10.20
2017-04-28T03:27:06.629Z,10.88
2017-04-28T03:29:35.716Z,10.72
2017-04-28T03:32:04.061Z,10.58
2017-04-28T03:34:32.403Z,10.76
2017-04-28T03:37:00.766Z,10.68
2017-04-28T03:39:29.847Z,11.50
2017-04-28T03:41:58.203Z,11.88
2017-04-28T03:44:26.556Z,11.98
2017-04-28T03:46:54.883Z,12.20
2017-04-28T03:49:23.975Z,12.00
2017-04-28T03:51:53.057Z,12.32
2017-04-28T03:54:21.418Z,13.46
2017-04-28T03:56:49.744Z,13.38
2017-04-28T03:59:18.841Z,13.96
2017-04-28T04:01:47.205Z,13.44
2017-04-28T04:04:16.292Z,13.48
2017-04-28T04:06:44.621Z,13.90
2017-04-28T04:09:12.952Z,14.30
2017-04-28T04:11:42.186Z,15.08
2017-04-28T04:14:10.586Z,14.92
2017-04-28T04:16:38.917Z,13.72
2017-04-28T04:19:07.298Z,17.00
2017-04-28T04:21:35.633Z,15.46
2017-04-28T04:24:04.001Z,17.02
2017-04-28T04:26:32.348Z,15.78
2017-04-28T04:29:00.695Z,15.94
2017-04-28T04:31:29.062Z,17.44
2017-04-28T04:33:58.169Z,18.48
2017-04-28T04:36:26.809Z,18.18
2017-04-28T04:38:55.281Z,19.06
2017-04-28T04:41:23.640Z,19.04
2017-04-28T04:43:52.381Z,18.62
2017-04-28T04:46:21.462Z,19.78
2017-04-28T04:48:50.534Z,19.76
2017-04-28T04:51:18.877Z,20.28
2017-04-28T04:53:47.242Z,18.66
2017-04-28T04:56:16.022Z,20.60
2017-04-28T04:58:44.360Z,19.88
2017-04-28T05:01:12.731Z,19.04
2017-04-28T05:03:41.203Z,18.42
2017-04-28T05:06:09.540Z,20.42
2017-04-28T05:08:37.914Z,18.74
2017-04-28T05:11:06.275Z,19.76
2017-04-28T05:13:35.394Z,20.26
2017-04-28T05:16:04.081Z,19.16
2017-04-28T05:18:32.411Z,19.46
2017-04-28T05:21:00.757Z,19.96
2017-04-28T05:23:29.749Z,19.10
2017-04-28T05:25:58.120Z,21.14
2017-04-28T05:28:26.513Z,21.72
2017-04-28T05:30:54.853Z,19.28
2017-04-28T05:33:23.206Z,19.62
2017-04-28T05:35:52.333Z,19.54
2017-04-28T05:38:20.674Z,21.46
2017-04-28T05:40:49.791Z,20.28
2017-04-28T05:43:19.083Z,20.46
2017-04-28T05:45:47.439Z,25.25
2017-04-28T05:48:16.544Z,23.20
2017-04-28T05:50:45.645Z,21.66
2017-04-28T05:53:14.032Z,20.70
2017-04-28T05:55:42.396Z,21.08
2017-04-28T05:58:11.477Z,20.30
2017-04-28T06:00:40.595Z,20.04
2017-04-28T06:03:08.954Z,22.18
2017-04-28T06:05:38.116Z,21.80
2017-04-28T06:08:06.481Z,22.16
2017-04-28T06:10:35.228Z,23.92
2017-04-28T06:13:03.560Z,22.36
2017-04-28T06:15:31.885Z,23.28
2017-04-28T06:18:00.273Z,24.88
2017-04-28T06:20:28.609Z,23.48
2017-04-28T06:22:56.959Z,22.86
2017-04-28T06:25:25.330Z,26.08
2017-04-28T06:27:53.688Z,24.52
2017-04-28T06:30:22.025Z,24.52
2017-04-28T06:32:51.195Z,24.64
2017-04-28T06:35:19.553Z,23.10
2017-04-28T06:37:48.612Z,24.28
2017-04-28T06:40:16.986Z,23.62
2017-04-28T06:42:45.375Z,22.60
2017-04-28T06:45:14.132Z,23.16
2017-04-28T06:47:42.460Z,22.20
2017-04-28T06:50:10.844Z,23.16
2017-04-28T06:52:39.225Z,20.26
2017-04-28T06:55:07.613Z,19.14
2017-04-28T06:57:37.022Z,19.62
2017-04-28T07:00:05.414Z,19.50
2017-04-28T07:02:33.740Z,19.46
2017-04-28T07:05:02.114Z,19.50
2017-04-28T07:07:30.529Z,17.78
2017-04-28T07:09:58.891Z,18.40
2017-04-28T07:12:27.264Z,16.56
2017-04-28T07:14:55.633Z,16.12
2017-04-28T07:17:23.998Z,16.78
2017-04-28T07:19:52.401Z,17.68
2017-04-28T07:22:20.783Z,16.84
2017-04-28T07:24:49.180Z,18.18
2017-04-28T07:27:17.568Z,15.94
2017-04-28T07:29:46.890Z,16.58
2017-04-28T07:32:15.425Z,15.12
2017-04-28T07:34:43.756Z,17.18
2017-04-28T07:37:12.132Z,15.96
2017-04-28T07:39:40.538Z,16.68
2017-04-28T07:42:08.978Z,16.24
2017-04-28T07:44:38.102Z,13.52
2017-04-28T07:47:06.448Z,13.48
2017-04-28T07:49:34.781Z,14.60
2017-04-28T07:52:03.157Z,15.60
2017-04-28T07:54:31.921Z,13.04
2017-04-28T07:57:00.321Z,13.60
2017-04-28T07:59:28.741Z,12.56
2017-04-28T08:01:57.849Z,12.96
2017-04-28T08:04:26.229Z,12.86
2017-04-28T08:06:54.565Z,11.66
2017-04-28T08:09:22.973Z,10.98
2017-04-28T08:11:51.309Z,12.24
2017-04-28T08:14:19.680Z,10.38
2017-04-28T08:16:48.035Z,10.06
2017-04-28T08:19:16.545Z,8.30
2017-04-28T08:21:44.910Z,10.74
2017-04-28T08:24:13.280Z,9.80
2017-04-28T08:26:41.657Z,9.50
2017-04-28T08:29:10.014Z,9.10
2017-04-28T08:31:38.777Z,9.48
2017-04-28T08:34:07.869Z,8.46
2017-04-28T08:36:36.945Z,8.30
2017-04-28T08:39:05.299Z,7.32
2017-04-28T08:41:33.644Z,8.30
2017-04-28T08:44:01.990Z,8.02
2017-04-28T08:46:31.068Z,8.24
2017-04-28T08:48:59.437Z,8.68
2017-04-28T08:51:27.793Z,8.38
2017-04-28T08:53:56.117Z,6.94
2017-04-28T08:56:25.206Z,7.12
2017-04-28T08:58:54.437Z,7.22
2017-04-28T09:01:22.770Z,7.38
2017-04-28T09:03:51.869Z,7.42
2017-04-28T09:06:20.929Z,6.74
2017-04-28T09:08:49.319Z,6.68
2017-04-28T09:11:17.680Z,6.70
2017-04-28T09:13:46.211Z,5.40
2017-04-28T09:16:14.558Z,5.86
2017-04-28T09:18:42.905Z,5.92
2017-04-28T09:21:11.281Z,6.66
2017-04-28T09:23:39.629Z,6.90
2017-04-28T09:26:07.967Z,6.20
2017-04-28T09:28:36.321Z,6.24
2017-04-28T09:31:04.698Z,6.42
2017-04-28T09:33:33.045Z,5.36
2017-04-28T09:36:01.400Z,4.70
2017-04-28T09:38:29.733Z,5.28
2017-04-28T09:40:58.469Z,5.10
2017-04-28T09:43:26.810Z,5.66
2017-04-28T09:45:55.142Z,5.06
2017-04-28T09:48:23.541Z,4.60
2017-04-28T09:50:51.900Z,4.18
2017-04-28T09:53:20.413Z,5.54
2017-04-28T09:55:48.917Z,5.58
2017-04-28T09:58:17.990Z,4.92
2017-04-28T10:00:46.793Z,5.48
2017-04-28T10:03:16.301Z,4.12
2017-04-28T10:05:45.493Z,5.94
2017-04-28T10:08:14.589Z,5.80
2017-04-28T10:10:42.913Z,6.80
2017-04-28T10:13:11.392Z,7.16
2017-04-28T10:15:39.718Z,6.80
2017-04-28T10:18:08.160Z,7.60
2017-04-28T10:20:36.660Z,6.20
2017-04-28T10:23:04.993Z,7.28
2017-04-28T10:25:34.124Z,17.86
2017-04-28T10:28:03.022Z,8.10
2017-04-28T10:30:31.692Z,7.58
2017-04-28T10:33:00.557Z,8.12
2017-04-28T10:35:30.021Z,7.18
2017-04-28T10:37:59.214Z,6.78
2017-04-28T10:40:28.954Z,6.32
2017-04-28T10:42:57.294Z,5.74
2017-04-28T10:45:25.617Z,5.14
2017-04-28T10:47:54.100Z,4.74
2017-04-28T10:50:23.090Z,4.48
2017-04-28T10:52:51.762Z,4.42
2017-04-28T10:55:20.129Z,3.54
2017-04-28T10:57:48.702Z,1.90
2017-04-28T11:00:17.125Z,1.84
2017-04-28T11:02:46.455Z,1.78
2017-04-28T11:05:15.899Z,1.70
2017-04-28T11:07:44.390Z,1.48
2017-04-28T11:10:12.814Z,1.76
2017-04-28T11:12:41.285Z,2.12
2017-04-28T11:15:09.720Z,2.18
2017-04-28T11:17:41.084Z,1.68
2017-04-28T11:20:09.496Z,1.58
2017-04-28T11:22:38.708Z,1.40
2017-04-28T11:25:07.177Z,1.48
2017-04-28T11:27:35.575Z,0.92
2017-04-28T11:30:04.795Z,1.58
2017-04-28T11:32:33.326Z,1.10
2017-04-28T11:35:01.743Z,1.06
2017-04-28T11:37:30.306Z,1.40
2017-04-28T11:39:59.443Z,1.22
2017-04-28T11:42:27.813Z,1.40
2017-04-28T11:44:56.189Z,1.50
2017-04-28T11:47:24.660Z,1.28
2017-04-28T11:49:52.993Z,1.10
2017-04-28T11:52:21.317Z,1.46
2017-04-28T11:54:49.760Z,1.40
2017-04-28T11:57:18.099Z,1.00
2017-04-28T11:59:46.803Z,1.10
2017-04-28T12:02:15.641Z,1.04
2017-04-28T12:04:43.974Z,1.20
2017-04-28T12:07:12.316Z,1.68
2017-04-28T12:09:40.744Z,1.48
2017-04-28T12:12:09.147Z,1.30
2017-04-28T12:14:38.224Z,1.62
2017-04-28T12:17:06.578Z,1.40
2017-04-28T12:19:35.234Z,1.78
2017-04-28T12:22:03.580Z,1.62
2017-04-28T12:24:31.961Z,1.78
2017-04-28T12:27:00.405Z,1.70
2017-04-28T12:29:28.767Z,1.60
2017-04-28T12:31:57.492Z,1.68
2017-04-28T12:34:26.566Z,1.66
2017-04-28T12:36:54.983Z,1.72
2017-04-28T12:39:23.504Z,1.30
2017-04-28T12:41:51.859Z,2.38
2017-04-28T12:44:20.194Z,1.60
2017-04-28T12:46:48.575Z,1.92
2017-04-28T12:49:17.652Z,1.82
2017-04-28T12:51:46.025Z,2.40
2017-04-28T12:54:14.369Z,2.12
2017-04-28T12:56:42.742Z,2.78
2017-04-28T12:59:11.392Z,3.22
2017-04-28T13:01:40.493Z,3.28
2017-04-28T13:04:08.820Z,3.36
2017-04-28T13:06:37.192Z,3.82
2017-04-28T13:09:05.588Z,4.60
2017-04-28T13:11:33.956Z,5.34
2017-04-28T13:14:02.429Z,5.80
2017-04-28T13:16:30.789Z,6.94
2017-04-28T13:18:59.102Z,6.24
2017-04-28T13:21:27.431Z,4.62
2017-04-28T13:23:55.760Z,4.74
2017-04-28T13:26:24.096Z,4.80
2017-04-28T13:28:52.437Z,8.72
2017-04-28T13:31:20.805Z,9.54
2017-04-28T13:33:49.481Z,4.82
2017-04-28T13:36:18.666Z,5.14
2017-04-28T13:38:47.310Z,4.16
2017-04-28T13:41:15.657Z,3.68
2017-04-28T13:43:43.993Z,3.50
2017-04-28T13:46:12.363Z,4.04
2017-04-28T13:48:40.741Z,3.88
2017-04-28T13:51:10.159Z,2.84
2017-04-28T13:53:38.542Z,2.94
2017-04-28T13:56:06.998Z,3.14
2017-04-28T13:58:35.350Z,2.80
2017-04-28T14:01:03.684Z,3.12
2017-04-28T14:03:32.358Z,4.10
2017-04-28T14:06:00.686Z,3.02
2017-04-28T14:08:29.020Z,3.40
2017-04-28T14:10:58.128Z,3.24
2017-04-28T14:13:26.461Z,3.18
2017-04-28T14:15:54.795Z,2.80
2017-04-28T14:18:23.342Z,3.30
2017-04-28T14:20:51.718Z,2.70
2017-04-28T14:23:20.109Z,2.60
2017-04-28T14:25:49.220Z,2.08
2017-04-28T14:28:17.589Z,2.28
2017-04-28T14:30:46.662Z,2.58
2017-04-28T14:33:15.354Z,2.34
2017-04-28T14:35:44.461Z,2.50
2017-04-28T14:38:13.694Z,2.70
2017-04-28T14:40:42.079Z,3.38
2017-04-28T14:43:10.420Z,2.84
2017-04-28T14:45:39.515Z,3.04
2017-04-28T14:48:07.882Z,3.08
2017-04-28T14:50:36.978Z,3.06
2017-04-28T14:53:06.112Z,2.34
2017-04-28T14:55:34.574Z,2.36
2017-04-28T14:58:03.910Z,2.10
2017-04-28T15:00:32.311Z,2.26
2017-04-28T15:03:00.722Z,1.60
2017-04-28T15:05:29.094Z,1.90
2017-04-28T15:07:58.222Z,1.28
2017-04-28T15:10:27.028Z,1.06
2017-04-28T15:12:55.393Z,1.18
2017-04-28T15:15:35.421Z,1.22
2017-04-28T15:18:03.780Z,1.40
2017-04-28T15:20:32.955Z,1.20
2017-04-28T15:23:02.213Z,1.04
2017-04-28T15:25:30.627Z,1.12
2017-04-28T15:27:59.022Z,1.38
2017-04-28T15:30:28.174Z,1.06
2017-04-28T15:32:56.574Z,1.22
2017-04-28T15:35:24.983Z,1.44
2017-04-28T15:37:53.312Z,1.46
2017-04-28T15:40:23.588Z,1.70
2017-04-28T15:42:51.989Z,1.46
2017-04-28T15:45:20.491Z,1.50
2017-04-28T15:47:48.902Z,1.46
2017-04-28T15:50:18.072Z,1.60
2017-04-28T15:52:46.477Z,1.50
2017-04-28T15:55:15.570Z,1.36
2017-04-28T15:57:43.938Z,2.12
2017-04-28T16:00:12.341Z,1.30
2017-04-28T16:02:41.397Z,1.28
2017-04-28T16:05:09.877Z,1.40
2017-04-28T16:07:38.378Z,1.30
2017-04-28T16:10:07.530Z,2.10
2017-04-28T16:12:36.235Z,1.70
2017-04-28T16:15:04.814Z,1.56
2017-04-28T16:17:33.298Z,3.50
2017-04-28T16:20:01.817Z,3.16
2017-04-28T16:22:30.214Z,5.88
2017-04-28T16:25:00.472Z,2.60
2017-04-28T16:27:28.901Z,2.54
2017-04-28T16:29:57.286Z,0.96
2017-04-28T16:32:25.643Z,1.58
2017-04-28T16:34:54.725Z,1.50
2017-04-28T16:37:23.068Z,1.60
2017-04-28T16:39:51.461Z,0.90
2017-04-28T16:42:19.850Z,1.26
2017-04-28T16:44:48.218Z,1.10
2017-04-28T16:47:16.574Z,1.36
2017-04-28T16:49:44.979Z,1.32
2017-04-28T16:52:14.079Z,1.44
2017-04-28T16:54:42.644Z,1.58
2017-04-28T16:57:11.017Z,1.72
2017-04-28T16:59:39.439Z,1.40
2017-04-28T17:02:08.532Z,1.82
2017-04-28T17:04:37.673Z,1.30
2017-04-28T17:07:06.285Z,3.62
2017-04-28T17:09:34.645Z,1.44
2017-04-28T17:12:02.970Z,1.20
2017-04-28T17:14:32.093Z,0.90
2017-04-28T17:17:00.417Z,1.60
2017-04-28T17:19:28.810Z,1.92
2017-04-28T17:21:57.891Z,2.30
2017-04-28T17:24:26.230Z,2.82
2017-04-28T17:26:54.591Z,1.80
2017-04-28T17:29:22.963Z,1.64
2017-04-28T17:31:51.429Z,2.02
2017-04-28T17:34:20.830Z,2.86
2017-04-28T17:36:49.909Z,3.12
2017-04-28T17:39:19.094Z,2.12
2017-04-28T17:41:47.924Z,1.80
2017-04-28T17:44:16.257Z,2.14
2017-04-28T17:46:44.978Z,2.50
2017-04-28T17:49:13.309Z,4.28
2017-04-28T17:51:41.679Z,1.94
2017-04-28T17:54:10.421Z,1.62
2017-04-28T17:56:38.749Z,1.00
2017-04-28T17:59:07.084Z,1.10
2017-04-28T18:01:35.504Z,1.06
2017-04-28T18:04:03.979Z,1.34
2017-04-28T18:06:32.311Z,1.58
2017-04-28T18:09:00.669Z,1.72
2017-04-28T18:11:29.796Z,2.40
2017-04-28T18:13:58.133Z,1.66
2017-04-28T18:16:27.257Z,1.50
2017-04-28T18:18:55.631Z,1.26
2017-04-28T18:21:24.007Z,1.26
2017-04-28T18:23:52.326Z,1.80
2017-04-28T18:26:21.087Z,1.48
2017-04-28T18:28:49.419Z,1.10
2017-04-28T18:31:17.797Z,1.22
2017-04-28T18:33:46.497Z,1.12
2017-04-28T18:36:14.838Z,1.30
2017-04-28T18:38:43.550Z,1.10
2017-04-28T18:41:12.672Z,2.02
2017-04-28T18:43:41.038Z,1.08
2017-04-28T18:46:09.378Z,1.20
2017-04-28T18:48:37.789Z,1.52
2017-04-28T18:51:06.118Z,2.02
2017-04-28T18:53:34.517Z,1.80
2017-04-28T18:56:02.885Z,1.42
2017-04-28T18:58:31.243Z,1.28
2017-04-28T19:00:59.998Z,1.54
2017-04-28T19:03:28.371Z,1.38
2017-04-28T19:05:56.717Z,1.80
2017-04-28T19:08:25.436Z,1.72
2017-04-28T19:10:53.782Z,1.48
2017-04-28T19:13:22.137Z,2.30
2017-04-28T19:15:50.986Z,1.52
2017-04-28T19:18:19.319Z,1.52
2017-04-28T19:20:47.650Z,1.54
2017-04-28T19:23:16.501Z,2.96
2017-04-28T19:25:44.953Z,2.68
2017-04-28T19:28:13.285Z,1.94
2017-04-28T19:30:41.647Z,1.84
2017-04-28T19:33:10.030Z,1.82
2017-04-28T19:35:38.452Z,1.74
2017-04-28T19:38:06.839Z,2.10
2017-04-28T19:40:35.176Z,2.38
2017-04-28T19:43:03.542Z,1.48
2017-04-28T19:45:31.918Z,1.92
2017-04-28T19:48:00.421Z,1.68
2017-04-28T19:50:28.782Z,1.50
2017-04-28T19:52:57.268Z,1.64
2017-04-28T19:55:25.648Z,2.30
2017-04-28T19:57:54.018Z,2.42
2017-04-28T20:00:22.390Z,1.94
2017-04-28T20:02:50.797Z,1.76
2017-04-28T20:05:19.157Z,1.70
2017-04-28T20:07:47.576Z,1.98
2017-04-28T20:10:15.931Z,2.08
2017-04-28T20:12:44.286Z,2.64
2017-04-28T20:15:12.965Z,2.04
2017-04-28T20:17:41.337Z,2.18
2017-04-28T20:20:09.681Z,2.22
2017-04-28T20:22:39.516Z,2.50
2017-04-28T20:25:07.861Z,2.32
2017-04-28T20:27:36.217Z,2.10
2017-04-28T20:30:04.634Z,2.00
2017-04-28T20:32:33.014Z,2.56
2017-04-28T20:35:02.093Z,1.68
2017-04-28T20:37:30.477Z,2.40
2017-04-28T20:39:58.854Z,2.82
2017-04-28T20:42:27.193Z,2.72
2017-04-28T20:44:55.615Z,3.16
2017-04-28T20:47:23.974Z,3.58
2017-04-28T20:49:52.316Z,2.78
2017-04-28T20:52:20.694Z,3.38
2017-04-28T20:54:49.174Z,3.64
2017-04-28T20:57:17.505Z,3.12
2017-04-28T20:59:45.865Z,3.92
2017-04-28T21:02:14.218Z,3.92
2017-04-28T21:04:42.553Z,4.12
2017-04-28T21:07:11.668Z,3.74
2017-04-28T21:09:40.039Z,3.58
2017-04-28T21:12:08.839Z,3.96
2017-04-28T21:14:37.178Z,3.34
2017-04-28T21:17:06.246Z,3.90
2017-04-28T21:19:34.898Z,3.82
2017-04-28T21:22:03.388Z,3.78
2017-04-28T21:24:31.734Z,3.62
2017-04-28T21:27:00.095Z,4.06
2017-04-28T21:29:29.330Z,3.56
2017-04-28T21:31:57.685Z,3.80
2017-04-28T21:34:26.026Z,3.54
2017-04-28T21:36:54.359Z,3.82
2017-04-28T21:39:22.717Z,4.44
2017-04-28T21:41:51.045Z,3.18
2017-04-28T21:44:19.874Z,3.54
2017-04-28T21:46:48.313Z,3.32
2017-04-28T21:49:16.642Z,4.18
2017-04-28T21:51:44.995Z,4.46
2017-04-28T21:54:14.062Z,3.62
2017-04-28T21:56:42.778Z,4.28
2017-04-28T21:59:11.116Z,3.98
2017-04-28T22:01:39.478Z,3.74
2017-04-28T22:04:07.852Z,4.18
2017-04-28T22:06:36.176Z,4.12
2017-04-28T22:09:04.859Z,3.24
2017-04-28T22:11:34.027Z,4.10
2017-04-28T22:14:02.353Z,4.66
2017-04-28T22:16:36.357Z,4.06
2017-04-28T22:19:05.429Z,3.08
2017-04-28T22:21:33.806Z,3.42
2017-04-28T22:24:02.148Z,4.12
2017-04-28T22:26:30.501Z,3.78
2017-04-28T22:28:58.851Z,3.58
2017-04-28T22:31:27.950Z,4.02
2017-04-28T22:33:55.533Z,4.20
2017-04-28T22:36:23.896Z,3.46
2017-04-28T22:38:52.773Z,3.74
2017-04-28T22:41:21.840Z,3.16
2017-04-28T22:43:50.212Z,3.92
2017-04-28T22:46:18.932Z,3.62
2017-04-28T22:48:47.258Z,3.80
2017-04-28T22:51:25.301Z,4.28
2017-04-28T22:56:47.386Z,3.38
2017-04-28T22:59:15.730Z,3.60
2017-04-28T23:01:45.143Z,3.62
2017-04-28T23:04:13.470Z,3.30
2017-04-28T23:06:41.803Z,3.36
2017-04-28T23:09:10.362Z,3.74
2017-04-28T23:11:39.482Z,3.36
2017-04-28T23:14:07.813Z,3.70
2017-04-28T23:16:36.144Z,3.18
2017-04-28T23:19:04.505Z,3.38
2017-04-28T23:21:32.851Z,3.40
2017-04-28T23:24:01.224Z,3.22
2017-04-28T23:26:29.616Z,3.24
2017-04-28T23:28:57.946Z,3.06
2017-04-28T23:31:26.304Z,3.42
2017-04-28T23:33:54.633Z,3.36
2017-04-28T23:36:22.985Z,3.02
2017-04-28T23:38:51.408Z,3.30
2017-04-28T23:41:20.473Z,3.50
2017-04-28T23:43:49.198Z,3.60
2017-04-28T23:46:18.284Z,3.16
2017-04-28T23:48:47.353Z,4.64
2017-04-28T23:51:16.065Z,4.42
2017-04-28T23:53:45.196Z,4.70
2017-04-28T23:56:13.508Z,4.60
2017-04-28T23:58:41.876Z,4.12
